This is the latest recevied weather packets stored in our database for station/object G4KVI. If no packets are shown the sender has not sent any weather packets the latest 10 day(s).
| Time | Temp. | Humidity | Pressure | Rain* | Wind** | Luminosity | Snow |
|---|---|---|---|---|---|---|---|
| 1777906503 | 13.89° C | 79% | 1016 hPa | 0 mm | - | 43 W/m² | - |
| 1777906203 | 13.89° C | 78% | 1016.2 hPa | 0 mm | - | 39 W/m² | - |
| 1777905903 | 14.44° C | 78% | 1016.1 hPa | 0 mm | - | 30 W/m² | - |
| 1777905603 | 14.44° C | 78% | 1016.4 hPa | 0 mm | - | 25 W/m² | - |
| 1777905303 | 14.44° C | 78% | 1016.1 hPa | 0 mm | - | 36 W/m² | - |
| 1777905003 | 14.44° C | 78% | 1015.9 hPa | 0 mm | - | 51 W/m² | - |
| 1777904703 | 14.44° C | 78% | 1016.2 hPa | 0 mm | - | 53 W/m² | - |
| 1777904403 | 14.44° C | 77% | 1015.9 hPa | 0 mm | - | 72 W/m² | - |
| 1777904103 | 14.44° C | 77% | 1016 hPa | 0 mm | - | 45 W/m² | - |
| 1777903803 | 15° C | 76% | 1016.1 hPa | 0 mm | - | 49 W/m² | - |
| 1777903503 | 15° C | 75% | 1016 hPa | 0 mm | - | 47 W/m² | - |
| 1777903203 | 15.56° C | 75% | 1016.3 hPa | 0 mm | - | 34 W/m² | - |
| 1777902903 | 15.56° C | 74% | 1015.9 hPa | 0 mm | - | 65 W/m² | - |
| 1777902603 | 15.56° C | 74% | 1016.2 hPa | 0 mm | - | 127 W/m² | - |
| 1777902303 | 15.56° C | 72% | 1015.9 hPa | 0 mm | - | 88 W/m² | - |
| 1777902004 | 15.56° C | 72% | 1015.9 hPa | 0 mm | - | 52 W/m² | - |
| 1777901704 | 15.56° C | 71% | 1015.9 hPa | 0 mm | - | 72 W/m² | - |
| 1777901404 | 15.56° C | 73% | 1016.1 hPa | 0 mm | - | 84 W/m² | - |
| 1777901103 | 15.56° C | 74% | 1016 hPa | 0 mm | - | 83 W/m² | - |
| 1777898103 | 16.67° C | 64% | 1015.9 hPa | 0 mm | - | 968 W/m² | - |
| 1777897803 | 16.67° C | 65% | 1016 hPa | 0 mm | - | 300 W/m² | - |
| 1777897503 | 17.22° C | 65% | 1015.9 hPa | 0 mm | - | 327 W/m² | - |
| 1777897204 | 16.67° C | 66% | 1016.1 hPa | 0 mm | - | 927 W/m² | - |
| 1777896903 | 16.67° C | 69% | 1015.9 hPa | 0 mm | - | 837 W/m² | - |
| 1777896603 | 16.11° C | 71% | 1016 hPa | 0 mm | - | 340 W/m² | - |
* Rain latest hour (hover to see other rain measurements)
** Current wind speed in m/s (hover to see current wind gust speed)